Time;durP1;ratioP1;P1;durP2;ratioP2;P2;SDS_P1;SDS_P2;PMS_P1;PMS_P2;Temp;Humidity;BMP_temperature;BMP_pressure;BME280_temperature;BME280_humidity;BME280_pressure;Samples;Min_cycle;Max_cycle;Signal;HPM_P1;HPM_P2
2021/12/22 00:02:07;;;;;;;41.67;27.25;;;;;;;-0.43;100.00;102606.59;5055785;28;20025;-77
2021/12/22 00:04:39;;;;;;;41.35;27.92;;;;;;;-0.43;100.00;102604.72;5039902;28;20115;-76
2021/12/22 00:07:04;;;;;;;38.78;26.92;;;;;;;-0.42;100.00;102602.91;5044247;28;20040;-76
2021/12/22 00:09:29;;;;;;;41.83;26.67;;;;;;;-0.48;100.00;102604.38;5054703;28;20462;-76
2021/12/22 00:11:55;;;;;;;40.58;27.48;;;;;;;-0.54;100.00;102598.81;5058887;28;20032;-76
2021/12/22 00:14:22;;;;;;;38.50;27.90;;;;;;;-0.52;100.00;102596.81;5038694;28;20541;-76
2021/12/22 00:16:48;;;;;;;36.30;26.20;;;;;;;-0.54;100.00;102594.28;5014799;28;20123;-76
2021/12/22 00:19:13;;;;;;;43.20;26.55;;;;;;;-0.52;100.00;102596.81;5039946;28;20123;-76
2021/12/22 00:21:40;;;;;;;41.03;27.25;;;;;;;-0.72;100.00;102586.34;5060383;28;20040;-77
2021/12/22 00:24:05;;;;;;;38.50;26.30;;;;;;;-0.73;100.00;102591.88;5056464;28;20441;-76
2021/12/22 00:26:30;;;;;;;40.88;27.60;;;;;;;-0.68;100.00;102593.06;5013945;28;20071;-76
2021/12/22 00:28:56;;;;;;;41.50;27.20;;;;;;;-0.76;100.00;102587.66;5020946;28;20040;-77
2021/12/22 00:31:23;;;;;;;37.88;25.60;;;;;;;-0.73;100.00;102590.03;5027564;28;20033;-77
2021/12/22 00:33:51;;;;;;;38.28;24.48;;;;;;;-0.72;100.00;102590.88;5035388;28;20032;-77
2021/12/22 00:36:21;;;;;;;41.30;27.30;;;;;;;-0.77;100.00;102589.53;5059453;28;20479;-77
2021/12/22 00:38:48;;;;;;;44.67;26.33;;;;;;;-0.77;100.00;102594.03;5055090;28;20028;-76
2021/12/22 00:41:14;;;;;;;36.90;26.42;;;;;;;-0.78;100.00;102595.06;5051085;28;20040;-76
2021/12/22 00:43:44;;;;;;;40.30;27.23;;;;;;;-0.79;100.00;102588.84;5040584;28;20029;-76
2021/12/22 00:46:12;;;;;;;36.17;24.70;;;;;;;-0.81;100.00;102590.84;5053096;28;20301;-77
2021/12/22 00:48:38;;;;;;;40.03;26.15;;;;;;;-0.84;100.00;102577.69;5045703;28;20037;-77
2021/12/22 00:51:03;;;;;;;36.70;25.52;;;;;;;-0.85;100.00;102589.50;5053157;28;20055;-76
2021/12/22 00:53:29;;;;;;;38.92;26.42;;;;;;;-0.89;100.00;102596.19;5050202;28;20032;-76
2021/12/22 00:55:54;;;;;;;38.40;26.83;;;;;;;-1.19;100.00;102605.69;5057673;28;20029;-76
2021/12/22 00:58:20;;;;;;;40.85;26.08;;;;;;;-1.17;100.00;102604.50;5033436;28;20458;-76
2021/12/22 01:00:47;;;;;;;35.47;25.95;;;;;;;-1.05;100.00;102606.91;5022250;28;20397;-76
2021/12/22 01:03:14;;;;;;;39.13;25.95;;;;;;;-1.01;100.00;102605.59;5051932;28;20025;-76
2021/12/22 01:05:40;;;;;;;33.72;24.40;;;;;;;-0.98;100.00;102594.50;5063928;28;20033;-76
2021/12/22 01:08:05;;;;;;;38.63;25.92;;;;;;;-1.01;100.00;102600.19;5043898;28;20036;-76
2021/12/22 01:10:31;;;;;;;47.83;27.45;;;;;;;-0.99;100.00;102606.25;5050644;28;20036;-76
2021/12/22 01:12:59;;;;;;;43.88;25.50;;;;;;;-1.02;100.00;102606.59;5064783;28;20129;-76
2021/12/22 01:15:26;;;;;;;42.53;27.27;;;;;;;-1.01;100.00;102610.97;5061245;28;20058;-77
2021/12/22 01:18:06;;;;;;;44.50;26.10;;;;;;;-1.02;100.00;102611.97;5025440;28;20040;-78
2021/12/22 01:20:49;;;;;;;41.08;25.67;;;;;;;-1.00;100.00;102618.88;5045589;28;20036;-76
2021/12/22 01:23:15;;;;;;;37.47;24.42;;;;;;;-1.03;100.00;102607.56;5030306;28;20136;-77
2021/12/22 01:25:43;;;;;;;43.38;26.67;;;;;;;-1.09;100.00;102602.84;5041903;28;20124;-77
2021/12/22 01:28:10;;;;;;;41.17;24.98;;;;;;;-1.22;100.00;102606.81;5043184;28;20035;-77
2021/12/22 01:30:41;;;;;;;36.60;24.27;;;;;;;-1.14;100.00;102604.16;5046539;28;20414;-76
2021/12/22 01:33:07;;;;;;;37.87;26.33;;;;;;;-1.12;100.00;102596.78;5049766;28;20529;-76
2021/12/22 01:35:34;;;;;;;40.80;25.50;;;;;;;-1.16;100.00;102598.13;5043857;28;20032;-75
2021/12/22 01:38:00;;;;;;;38.50;24.40;;;;;;;-1.15;100.00;102597.13;5055925;28;20025;-76
2021/12/22 01:40:26;;;;;;;39.85;25.73;;;;;;;-1.14;100.00;102587.19;5044685;28;20039;-76
2021/12/22 01:42:55;;;;;;;37.03;25.85;;;;;;;-1.15;100.00;102586.34;5043797;28;20105;-76
2021/12/22 01:51:51;;;;;;;41.22;25.30;;;;;;;-1.27;100.00;102584.94;5065565;28;20086;-76
2021/12/22 01:54:21;;;;;;;40.95;24.95;;;;;;;-1.25;100.00;102579.41;5048984;28;20043;-76
2021/12/22 01:56:48;;;;;;;40.15;25.05;;;;;;;-1.15;100.00;102588.19;5040109;28;20029;-76
2021/12/22 01:59:15;;;;;;;41.53;24.98;;;;;;;-1.17;100.00;102587.50;5045221;28;20028;-77
2021/12/22 02:01:40;;;;;;;38.85;26.70;;;;;;;-1.14;100.00;102593.41;5049095;28;20366;-75
2021/12/22 02:04:10;;;;;;;41.03;23.90;;;;;;;-1.21;100.00;102587.00;5049677;28;20037;-77
2021/12/22 02:06:47;;;;;;;36.83;23.73;;;;;;;-1.23;100.00;102590.84;5044969;28;20426;-77
2021/12/22 02:09:22;;;;;;;42.83;25.35;;;;;;;-1.20;100.00;102588.66;5043266;28;20388;-77
2021/12/22 02:11:48;;;;;;;39.55;25.67;;;;;;;-1.23;100.00;102588.16;5050775;28;20056;-76
2021/12/22 02:14:13;;;;;;;46.00;26.48;;;;;;;-1.42;100.00;102595.44;5020764;28;20132;-76
2021/12/22 02:16:40;;;;;;;49.15;25.77;;;;;;;-1.50;100.00;102601.63;5045509;28;20052;-76
2021/12/22 02:19:08;;;;;;;39.38;23.48;;;;;;;-1.38;100.00;102594.13;5062595;28;20036;-74
2021/12/22 02:21:42;;;;;;;42.88;25.48;;;;;;;-1.74;100.00;102598.78;5052976;28;20369;-77
2021/12/22 02:24:08;;;;;;;45.58;26.77;;;;;;;-1.73;100.00;102605.84;5028439;28;20442;-76
2021/12/22 02:26:43;;;;;;;40.08;25.73;;;;;;;-1.65;100.00;102605.06;5049488;28;20044;-77
2021/12/22 02:29:19;;;;;;;48.47;27.27;;;;;;;-1.54;100.00;102611.03;5045210;28;20082;-76
2021/12/22 02:32:01;;;;;;;42.10;26.10;;;;;;;-1.40;100.00;102611.44;5029805;28;20059;-76
2021/12/22 02:34:27;;;;;;;40.78;25.77;;;;;;;-1.48;100.00;102606.84;5062049;28;20040;-78
2021/12/22 02:36:58;;;;;;;47.88;26.95;;;;;;;-1.57;100.00;102607.81;5059640;28;20043;-77
2021/12/22 02:39:24;;;;;;;40.28;25.60;;;;;;;-1.53;100.00;102601.94;5048060;28;20365;-76
2021/12/22 02:41:50;;;;;;;41.50;26.25;;;;;;;-1.51;100.00;102602.66;5032159;28;20182;-75
2021/12/22 02:44:16;;;;;;;41.83;25.60;;;;;;;-1.50;100.00;102601.63;5041312;28;20044;-77
2021/12/22 02:46:41;;;;;;;37.17;24.25;;;;;;;-1.71;100.00;102606.53;5043027;28;20032;-76
2021/12/22 02:49:09;;;;;;;45.60;25.88;;;;;;;-1.68;100.00;102607.06;5040085;28;20043;-76
2021/12/22 02:51:36;;;;;;;45.22;25.17;;;;;;;-1.54;100.00;102597.56;5034165;28;20625;-76
2021/12/22 02:56:39;;;;;;;42.85;25.33;;;;;;;-1.55;100.00;102597.72;5064960;28;20060;-76
2021/12/22 03:02:08;;;;;;;39.75;23.90;;;;;;;-1.56;100.00;102598.72;5046083;28;20035;-76
2021/12/22 03:04:42;;;;;;;38.80;23.75;;;;;;;-1.54;100.00;102594.03;5057749;28;20056;-76
2021/12/22 03:07:13;;;;;;;43.08;25.65;;;;;;;-1.50;100.00;102590.84;5027145;28;20028;-76
2021/12/22 03:09:40;;;;;;;40.83;25.92;;;;;;;-1.42;100.00;102589.25;5055160;28;20044;-76
2021/12/22 03:12:10;;;;;;;46.58;26.73;;;;;;;-1.42;100.00;102589.25;5046680;28;20033;-76
2021/12/22 03:14:36;;;;;;;42.15;24.67;;;;;;;-1.41;100.00;102593.59;5056564;28;20462;-77
2021/12/22 03:17:03;;;;;;;39.30;25.05;;;;;;;-1.42;100.00;102594.63;5018110;28;20694;-77
2021/12/22 03:19:32;;;;;;;42.35;26.20;;;;;;;-1.52;100.00;102592.88;5025450;28;20113;-77
2021/12/22 03:22:04;;;;;;;39.10;24.45;;;;;;;-1.55;100.00;102590.50;5047760;28;20017;-76
2021/12/22 03:24:32;;;;;;;39.28;24.50;;;;;;;-1.54;100.00;102588.63;5056118;28;20110;-77
2021/12/22 03:27:02;;;;;;;46.17;26.35;;;;;;;-1.62;100.00;102586.75;5060255;28;20040;-77
2021/12/22 03:29:28;;;;;;;38.50;24.50;;;;;;;-1.64;100.00;102595.97;5062775;28;20033;-77
2021/12/22 03:31:53;;;;;;;41.63;25.45;;;;;;;-1.60;100.00;102589.28;5049031;28;20391;-77
2021/12/22 03:34:19;;;;;;;40.88;25.67;;;;;;;-1.64;100.00;102580.72;5061359;28;20036;-76
2021/12/22 03:36:45;;;;;;;43.70;27.08;;;;;;;-1.60;100.00;102582.06;5032108;28;20036;-75
2021/12/22 03:39:13;;;;;;;38.63;24.95;;;;;;;-1.56;100.00;102582.59;5038404;28;20238;-76
2021/12/22 03:41:39;;;;;;;41.78;25.42;;;;;;;-1.53;100.00;102582.28;5052391;28;20455;-76
2021/12/22 03:44:06;;;;;;;38.97;25.40;;;;;;;-1.53;100.00;102576.88;5024607;28;20226;-76
2021/12/22 03:46:31;;;;;;;43.08;25.90;;;;;;;-1.55;100.00;102579.75;5042975;28;20040;-77
2021/12/22 03:48:58;;;;;;;41.38;26.38;;;;;;;-1.55;100.00;102570.84;5041831;28;20033;-76
2021/12/22 03:51:27;;;;;;;43.03;25.42;;;;;;;-1.54;100.00;102573.38;5054418;28;20036;-75
2021/12/22 03:53:53;;;;;;;42.13;26.27;;;;;;;-1.55;100.00;102562.75;5047649;28;20123;-75
2021/12/22 03:56:19;;;;;;;38.47;25.85;;;;;;;-1.52;100.00;102557.06;5039671;28;20048;-77
2021/12/22 03:58:46;;;;;;;42.35;27.20;;;;;;;-1.55;100.00;102568.97;5054497;28;20060;-76
2021/12/22 04:01:13;;;;;;;45.53;26.30;;;;;;;-1.53;100.00;102561.59;5047736;28;20048;-77
2021/12/22 04:03:41;;;;;;;39.60;26.30;;;;;;;-1.52;100.00;102562.44;5043529;28;20036;-76
2021/12/22 04:06:07;;;;;;;47.83;28.25;;;;;;;-1.54;100.00;102554.53;5041594;28;20478;-77
2021/12/22 04:08:32;;;;;;;42.38;27.05;;;;;;;-1.53;100.00;102550.81;5036344;28;20123;-77
2021/12/22 04:10:58;;;;;;;46.13;28.50;;;;;;;-1.53;100.00;102561.59;5041123;28;20111;-77
2021/12/22 04:13:23;;;;;;;47.03;28.85;;;;;;;-1.58;100.00;102550.47;5042063;28;20424;-76
2021/12/22 04:15:49;;;;;;;44.08;27.38;;;;;;;-1.58;100.00;102546.94;5042308;28;20475;-76
2021/12/22 04:18:16;;;;;;;48.33;27.73;;;;;;;-1.60;100.00;102547.09;5008028;28;20040;-76
2021/12/22 04:20:41;;;;;;;46.45;27.88;;;;;;;-1.59;100.00;102546.09;5057463;28;20123;-75
2021/12/22 04:23:07;;;;;;;42.65;26.80;;;;;;;-1.61;100.00;102548.09;5054819;28;20543;-76
2021/12/22 04:25:33;;;;;;;42.35;27.42;;;;;;;-1.65;100.00;102545.91;5060677;28;20089;-76
2021/12/22 04:28:04;;;;;;;50.13;30.05;;;;;;;-1.71;100.00;102541.97;5048119;28;20111;-76
2021/12/22 04:30:32;;;;;;;49.08;27.75;;;;;;;-1.64;100.00;102540.38;5050453;28;20372;-76
2021/12/22 04:32:59;;;;;;;45.60;28.27;;;;;;;-1.62;100.00;102538.34;5057099;28;20451;-76
2021/12/22 04:35:24;;;;;;;50.15;29.58;;;;;;;-1.59;100.00;102547.94;5065508;28;20036;-77
2021/12/22 04:37:51;;;;;;;44.05;28.70;;;;;;;-1.63;100.00;102546.56;5063298;28;20091;-76
2021/12/22 04:40:16;;;;;;;38.45;25.58;;;;;;;-1.69;100.00;102540.84;5066119;28;20142;-76
2021/12/22 04:42:43;;;;;;;44.95;27.90;;;;;;;-1.66;100.00;102534.28;5018443;28;20119;-76
2021/12/22 04:45:09;;;;;;;49.45;27.77;;;;;;;-1.67;100.00;102525.38;5055006;28;20416;-75
2021/12/22 04:47:35;;;;;;;43.85;26.30;;;;;;;-1.62;100.00;102529.41;5058532;28;20079;-76
2021/12/22 04:50:03;;;;;;;45.42;26.95;;;;;;;-1.70;100.00;102531.06;5065209;28;20036;-76
2021/12/22 04:52:38;;;;;;;43.40;26.23;;;;;;;-1.71;100.00;102523.16;5030986;28;20041;-76
2021/12/22 04:55:04;;;;;;;42.78;26.75;;;;;;;-1.73;100.00;102522.47;5044821;28;20181;-76
2021/12/22 04:57:32;;;;;;;45.20;29.15;;;;;;;-1.68;100.00;102520.16;5067530;28;20106;-76
2021/12/22 04:59:58;;;;;;;48.88;27.92;;;;;;;-1.68;100.00;102518.31;5046714;28;20035;-76
2021/12/22 05:02:23;;;;;;;47.30;28.08;;;;;;;-1.67;100.00;102506.56;5063136;28;20154;-76
2021/12/22 05:04:51;;;;;;;45.42;27.30;;;;;;;-1.69;100.00;102513.06;5066304;28;20115;-77
2021/12/22 05:07:16;;;;;;;45.42;27.35;;;;;;;-1.83;100.00;102498.41;5039204;28;20542;-76
2021/12/22 05:09:42;;;;;;;46.60;27.88;;;;;;;-1.83;100.00;102505.63;5047975;28;20103;-75
2021/12/22 05:12:08;;;;;;;44.33;27.85;;;;;;;-1.83;100.00;102505.63;5045694;28;20033;-75
2021/12/22 05:14:33;;;;;;;45.08;25.70;;;;;;;-1.78;100.00;102503.31;5057566;28;20032;-75
2021/12/22 05:17:05;;;;;;;45.15;27.50;;;;;;;-1.75;100.00;102506.50;5057233;28;20079;-75
2021/12/22 05:19:31;;;;;;;50.97;27.75;;;;;;;-1.90;100.00;102508.94;5029782;28;20147;-76
2021/12/22 05:21:57;;;;;;;43.30;26.67;;;;;;;-1.86;100.00;102510.28;5048356;28;20440;-76
2021/12/22 05:24:22;;;;;;;46.10;27.05;;;;;;;-1.85;100.00;102506.63;5053731;28;20045;-76
2021/12/22 05:26:48;;;;;;;48.92;27.83;;;;;;;-1.82;100.00;102501.91;5034497;28;20036;-76
2021/12/22 05:29:14;;;;;;;46.67;26.77;;;;;;;-1.85;100.00;102500.41;5057975;28;20056;-76
2021/12/22 05:31:40;;;;;;;41.08;25.67;;;;;;;-1.85;100.00;102509.31;5044598;28;20120;-76
2021/12/22 05:34:05;;;;;;;52.05;28.13;;;;;;;-1.77;100.00;102515.72;5051132;28;20375;-76
2021/12/22 05:36:31;;;;;;;43.58;26.40;;;;;;;-1.79;100.00;102507.81;5064592;28;20028;-76
2021/12/22 05:38:57;;;;;;;49.63;27.13;;;;;;;-1.84;100.00;102510.13;5063581;28;20050;-76
2021/12/22 05:41:23;;;;;;;42.28;25.17;;;;;;;-1.81;100.00;102512.50;5037778;28;20096;-76
2021/12/22 05:43:48;;;;;;;43.78;25.02;;;;;;;-1.80;100.00;102511.53;5063646;28;20024;-76
2021/12/22 05:46:14;;;;;;;45.28;26.23;;;;;;;-1.82;100.00;102507.28;5062374;28;20036;-75
2021/12/22 05:48:40;;;;;;;42.78;25.67;;;;;;;-1.83;100.00;102506.47;5062316;28;20075;-75
2021/12/22 05:51:06;;;;;;;47.03;25.92;;;;;;;-1.81;100.00;102504.44;5064021;28;20107;-75
2021/12/22 05:53:32;;;;;;;42.58;24.20;;;;;;;-1.85;100.00;102503.94;5063824;28;20032;-75
2021/12/22 05:55:58;;;;;;;41.90;25.08;;;;;;;-1.90;100.00;102513.50;5063538;28;20082;-76
2021/12/22 05:58:24;;;;;;;42.03;26.23;;;;;;;-1.89;100.00;102507.91;5033393;28;20035;-76
2021/12/22 06:00:50;;;;;;;44.08;26.77;;;;;;;-1.89;100.00;102507.91;5060802;28;20028;-75
2021/12/22 06:03:16;;;;;;;48.80;28.10;;;;;;;-1.81;100.00;102507.13;5053954;28;20029;-75
2021/12/22 06:05:42;;;;;;;44.28;26.08;;;;;;;-1.84;100.00;102512.81;5063221;28;20032;-75
2021/12/22 06:08:08;;;;;;;42.22;24.75;;;;;;;-1.92;100.00;102508.25;5061143;28;20040;-74
2021/12/22 06:10:34;;;;;;;46.85;25.35;;;;;;;-1.91;100.00;102511.78;5062047;28;20403;-75
2021/12/22 06:13:08;;;;;;;45.72;25.80;;;;;;;-1.91;100.00;102501.88;5045850;28;20040;-75
2021/12/22 06:15:34;;;;;;;45.38;26.65;;;;;;;-1.93;100.00;102500.34;5060126;28;20033;-75
2021/12/22 06:18:02;;;;;;;48.70;25.23;;;;;;;-2.02;100.00;102496.75;5044818;28;20459;-75
2021/12/22 06:20:29;;;;;;;44.03;24.85;;;;;;;-1.98;100.00;102502.66;5028082;28;20044;-75
2021/12/22 06:22:54;;;;;;;41.90;25.27;;;;;;;-1.96;100.00;102496.13;5047226;28;20052;-76
2021/12/22 06:25:21;;;;;;;45.70;26.50;;;;;;;-2.04;100.00;102504.13;5011851;28;20117;-76
2021/12/22 06:27:47;;;;;;;51.28;26.77;;;;;;;-1.99;100.00;102503.66;5062662;28;20040;-76
2021/12/22 06:30:13;;;;;;;47.83;26.65;;;;;;;-1.94;100.00;102491.44;5060818;28;20040;-76
2021/12/22 06:32:38;;;;;;;45.03;26.13;;;;;;;-1.98;100.00;102500.81;5059554;28;20032;-74
2021/12/22 06:35:05;;;;;;;47.67;25.85;;;;;;;-1.96;100.00;102498.81;5061707;28;20032;-75
2021/12/22 06:37:30;;;;;;;47.55;27.15;;;;;;;-1.91;100.00;102503.72;5059706;28;20036;-76
2021/12/22 06:39:56;;;;;;;40.45;25.20;;;;;;;-1.99;100.00;102499.13;5061049;28;20387;-76
2021/12/22 06:42:22;;;;;;;50.28;26.95;;;;;;;-1.91;100.00;102501.03;5044656;28;20091;-76
2021/12/22 06:44:48;;;;;;;43.58;24.30;;;;;;;-1.87;100.00;102503.25;5050353;28;20024;-76
2021/12/22 06:47:14;;;;;;;45.53;24.77;;;;;;;-1.88;100.00;102498.88;5058202;28;20676;-76
2021/12/22 06:49:39;;;;;;;47.92;26.00;;;;;;;-1.89;100.00;102491.78;5061086;28;20555;-75
2021/12/22 06:52:05;;;;;;;45.05;25.20;;;;;;;-1.95;100.00;102497.81;5027888;28;20032;-75
2021/12/22 06:54:31;;;;;;;42.28;25.73;;;;;;;-1.97;100.00;102504.34;5061641;28;20521;-74
2021/12/22 06:56:56;;;;;;;44.33;25.00;;;;;;;-1.97;100.00;102498.97;5061796;28;20120;-75
2021/12/22 06:59:22;;;;;;;45.30;25.58;;;;;;;-1.94;100.00;102499.50;5059375;28;20380;-74
2021/12/22 07:01:50;;;;;;;46.65;26.45;;;;;;;-2.01;100.00;102493.06;5043628;28;20200;-75
2021/12/22 07:04:15;;;;;;;45.47;26.40;;;;;;;-1.93;100.00;102482.38;5038976;28;20684;-75
2021/12/22 07:06:41;;;;;;;44.95;25.45;;;;;;;-1.99;100.00;102488.38;5025150;28;20033;-75
2021/12/22 07:09:07;;;;;;;46.10;26.25;;;;;;;-1.96;100.00;102487.22;5035684;28;20055;-76
2021/12/22 07:11:34;;;;;;;43.55;25.85;;;;;;;-1.95;100.00;102480.84;5061299;28;20348;-75
2021/12/22 07:14:00;;;;;;;44.67;26.27;;;;;;;-2.01;100.00;102476.13;5041227;28;20282;-76
2021/12/22 07:16:26;;;;;;;47.45;26.15;;;;;;;-1.99;100.00;102477.63;5026333;28;20028;-76
2021/12/22 07:18:51;;;;;;;47.53;26.40;;;;;;;-2.08;100.00;102474.06;5025491;28;20032;-76
2021/12/22 07:21:17;;;;;;;47.88;26.25;;;;;;;-2.13;100.00;102472.81;5044282;28;20028;-75
2021/12/22 07:23:45;;;;;;;40.50;25.52;;;;;;;-2.07;100.00;102483.78;5044486;28;20103;-76
2021/12/22 07:26:14;;;;;;;48.80;28.05;;;;;;;-2.15;100.00;102464.09;5038147;28;20379;-77
2021/12/22 07:28:54;;;;;;;48.10;26.98;;;;;;;-2.09;100.00;102479.59;5047174;28;20138;-76
2021/12/22 07:31:22;;;;;;;45.92;26.13;;;;;;;-2.08;100.00;102475.91;5043562;28;20029;-80
2021/12/22 07:34:05;;;;;;;46.28;25.60;;;;;;;-1.97;100.00;102483.69;5047049;28;20021;-77
2021/12/22 07:36:43;;;;;;;39.70;24.50;;;;;;;-2.09;100.00;102477.72;5029508;28;20457;-77
2021/12/22 07:39:08;;;;;;;46.83;25.00;;;;;;;-2.06;100.00;102474.72;5052042;28;20024;-77
2021/12/22 07:41:34;;;;;;;48.38;27.40;;;;;;;-2.03;100.00;102473.59;5057054;28;20575;-77
2021/12/22 07:44:00;;;;;;;94.90;49.85;;;;;;;-1.92;100.00;102472.44;5043144;28;20116;-77
2021/12/22 07:46:25;;;;;;;124.68;68.63;;;;;;;-1.97;100.00;102464.03;5022489;28;20044;-76
2021/12/22 07:48:50;;;;;;;78.70;43.17;;;;;;;-1.90;100.00;102481.22;5061215;28;20108;-77
2021/12/22 07:51:16;;;;;;;62.20;33.58;;;;;;;-1.87;100.00;102479.06;5062986;28;20513;-76
2021/12/22 07:53:42;;;;;;;54.38;29.38;;;;;;;-1.88;100.00;102477.34;5036342;28;20484;-78
2021/12/22 07:56:07;;;;;;;51.38;28.60;;;;;;;-1.85;100.00;102493.19;5045822;28;20091;-77
2021/12/22 07:58:33;;;;;;;57.97;31.60;;;;;;;-1.88;100.00;102488.13;5050189;28;20123;-76
2021/12/22 08:00:58;;;;;;;51.88;28.73;;;;;;;-1.89;100.00;102490.97;5044479;28;20052;-74
2021/12/22 08:03:25;;;;;;;47.13;25.92;;;;;;;-1.82;100.00;102492.03;5046536;28;20123;-74
2021/12/22 08:05:52;;;;;;;46.78;26.25;;;;;;;-1.79;100.00;102489.00;5033895;28;20455;-76
2021/12/22 08:08:18;;;;;;;44.92;25.77;;;;;;;-1.80;100.00;102478.41;5065402;28;20021;-75
2021/12/22 08:10:44;;;;;;;48.88;27.15;;;;;;;-1.83;100.00;102484.94;5066776;28;20482;-75
2021/12/22 08:13:10;;;;;;;47.63;25.08;;;;;;;-1.72;100.00;102497.25;5050705;28;20071;-75
2021/12/22 08:15:35;;;;;;;50.95;27.45;;;;;;;-1.63;100.00;102498.16;5025734;28;20067;-76
2021/12/22 08:18:01;;;;;;;53.55;27.48;;;;;;;-1.65;100.00;102487.56;5056673;28;20028;-76
2021/12/22 08:20:26;;;;;;;40.88;24.65;;;;;;;-1.65;100.00;102484.88;5036328;28;20048;-76
2021/12/22 08:22:52;;;;;;;47.55;26.95;;;;;;;-1.70;100.00;102485.34;5040535;28;20506;-77
2021/12/22 08:25:17;;;;;;;48.97;26.38;;;;;;;-1.66;100.00;102485.88;5061989;28;20021;-76
2021/12/22 08:27:43;;;;;;;45.88;26.80;;;;;;;-1.61;100.00;102478.16;5067467;28;20021;-76
2021/12/22 08:30:11;;;;;;;44.97;25.80;;;;;;;-1.52;100.00;102490.66;5064667;28;20039;-77
2021/12/22 08:32:37;;;;;;;48.45;25.95;;;;;;;-1.51;100.00;102480.72;5053668;28;20191;-76
2021/12/22 08:35:06;;;;;;;43.63;25.65;;;;;;;-1.50;100.00;102480.56;5049527;28;20539;-76
2021/12/22 08:40:17;;;;;;;46.08;27.58;;;;;;;-1.46;100.00;102482.94;5044884;28;20086;-77
2021/12/22 08:42:44;;;;;;;48.15;26.85;;;;;;;-1.39;100.00;102476.75;5046101;28;20391;-76
2021/12/22 08:45:12;;;;;;;52.45;27.25;;;;;;;-1.31;100.00;102474.09;5062419;28;20108;-76
2021/12/22 08:47:37;;;;;;;45.75;25.88;;;;;;;-1.23;100.00;102478.66;5043913;28;20090;-75
2021/12/22 08:50:08;;;;;;;50.25;27.83;;;;;;;-1.21;100.00;102468.56;5036992;28;20391;-75
2021/12/22 08:52:34;;;;;;;49.80;27.27;;;;;;;-1.15;100.00;102472.44;5067399;28;20072;-77
2021/12/22 08:54:59;;;;;;;49.45;28.45;;;;;;;-1.06;100.00;102471.47;5060581;28;20460;-76
2021/12/22 08:57:25;;;;;;;50.60;28.05;;;;;;;-1.06;100.00;102478.72;5052518;28;20601;-77
2021/12/22 08:59:51;;;;;;;53.03;28.98;;;;;;;-0.96;100.00;102482.91;5056626;28;20440;-75
2021/12/22 09:02:17;;;;;;;46.38;28.23;;;;;;;-0.83;100.00;102487.00;5056264;28;20079;-77
2021/12/22 09:04:43;;;;;;;45.33;26.73;;;;;;;-0.73;100.00;102482.28;5046311;28;20121;-77
2021/12/22 09:07:08;;;;;;;46.70;28.67;;;;;;;-0.67;100.00;102486.16;5041044;28;20503;-76
2021/12/22 09:09:34;;;;;;;45.65;26.80;;;;;;;-0.61;100.00;102482.78;5053957;28;20079;-76
2021/12/22 09:11:59;;;;;;;52.03;28.77;;;;;;;-0.61;100.00;102475.56;5049489;28;20067;-76
2021/12/22 09:14:25;;;;;;;48.85;28.88;;;;;;;-0.58;100.00;102482.47;5065531;28;20119;-76
2021/12/22 09:16:52;;;;;;;50.55;28.27;;;;;;;-0.57;100.00;102476.91;5065576;28;20468;-76
2021/12/22 09:19:17;;;;;;;43.10;26.55;;;;;;;-0.62;100.00;102481.13;5048622;28;20032;-76
2021/12/22 09:21:43;;;;;;;42.60;27.17;;;;;;;-0.64;100.00;102485.81;5047079;28;20545;-76
2021/12/22 09:24:09;;;;;;;46.28;28.40;;;;;;;-0.56;100.00;102478.59;5052524;28;20071;-76
2021/12/22 09:26:35;;;;;;;49.72;29.20;;;;;;;-0.56;100.00;102475.91;5048182;28;20051;-75
2021/12/22 09:29:01;;;;;;;46.58;28.42;;;;;;;-0.63;100.00;102477.56;5046262;28;20225;-76
2021/12/22 09:31:27;;;;;;;49.42;28.65;;;;;;;-0.67;100.00;102470.00;5065037;28;20037;-76
2021/12/22 09:33:53;;;;;;;44.50;28.13;;;;;;;-0.51;100.00;102474.56;5045003;28;20520;-75
2021/12/22 09:36:19;;;;;;;43.53;27.80;;;;;;;-0.38;100.00;102481.13;5047888;28;20033;-73
2021/12/22 09:38:45;;;;;;;43.53;28.88;;;;;;;-0.32;100.00;102476.06;5028176;28;20060;-75
2021/12/22 09:41:12;;;;;;;45.28;28.33;;;;;;;-0.29;100.00;102468.47;5052774;28;20146;-76
2021/12/22 09:43:38;;;;;;;59.38;33.97;;;;;;;-0.10;100.00;102472.69;5064623;28;20040;-75
2021/12/22 09:46:08;;;;;;;40.38;27.75;;;;;;;0.03;100.00;102479.38;5060424;28;20564;-75
2021/12/22 09:53:36;;;;;;;38.25;26.67;;;;;;;0.27;100.00;102467.69;5045434;28;20033;-75
2021/12/22 09:56:03;;;;;;;46.65;29.15;;;;;;;0.39;100.00;102468.16;5044462;28;20432;-74
2021/12/22 09:58:28;;;;;;;49.20;29.85;;;;;;;0.34;100.00;102471.38;5044913;28;20067;-75
2021/12/22 10:00:55;;;;;;;47.50;29.08;;;;;;;0.37;100.00;102468.31;5044819;28;20066;-75
2021/12/22 10:03:23;;;;;;;46.00;27.38;;;;;;;0.41;100.00;102464.28;5065408;28;20036;-75
2021/12/22 10:05:49;;;;;;;39.03;27.58;;;;;;;0.31;100.00;102464.50;5051610;28;20127;-76
2021/12/22 10:08:17;;;;;;;43.40;28.98;;;;;;;0.60;100.00;102459.47;5064848;28;20033;-76
2021/12/22 10:10:59;;;;;;;45.83;29.05;;;;;;;0.78;100.00;102465.44;5060010;28;20407;-77
2021/12/22 10:13:28;;;;;;;42.60;27.77;;;;;;;0.90;100.00;102460.47;5065341;28;20078;-76
2021/12/22 10:15:54;;;;;;;41.60;27.33;;;;;;;0.87;100.00;102463.53;5063965;28;20114;-75
2021/12/22 10:18:23;;;;;;;41.67;28.15;;;;;;;1.00;100.00;102449.44;5063741;28;20252;-75
2021/12/22 10:20:52;;;;;;;40.08;27.25;;;;;;;1.12;100.00;102464.25;5064756;28;20093;-76
2021/12/22 10:23:25;;;;;;;43.97;28.83;;;;;;;1.10;100.00;102466.28;5058654;28;20201;-77
2021/12/22 10:25:56;;;;;;;45.30;28.80;;;;;;;1.09;100.00;102467.28;5049570;28;20065;-76
2021/12/22 10:28:27;;;;;;;38.85;26.40;;;;;;;1.07;100.00;102459.38;5048113;28;20029;-77
2021/12/22 10:30:59;;;;;;;44.30;27.52;;;;;;;1.36;100.00;102460.53;5053739;28;20028;-77
2021/12/22 10:33:30;;;;;;;39.53;27.70;;;;;;;1.43;100.00;102453.34;5060998;28;20181;-76
2021/12/22 10:35:58;;;;;;;43.13;28.00;;;;;;;1.42;100.00;102454.38;5063810;28;20054;-75
2021/12/22 10:38:29;;;;;;;40.60;26.23;;;;;;;1.57;100.00;102450.88;5066987;28;20317;-75
2021/12/22 10:41:00;;;;;;;34.63;25.55;;;;;;;1.42;100.00;102451.66;5067147;28;20021;-76
2021/12/22 10:43:30;;;;;;;40.25;26.85;;;;;;;1.53;100.00;102460.38;5044273;28;20108;-76
2021/12/22 10:45:59;;;;;;;37.85;25.65;;;;;;;1.45;100.00;102455.88;5044433;28;20111;-76
2021/12/22 10:51:19;;;;;;;35.45;25.55;;;;;;;1.70;100.00;102450.25;5046366;28;20043;-77
2021/12/22 10:53:47;;;;;;;38.45;26.45;;;;;;;1.73;100.00;102437.19;5026294;28;20028;-76
2021/12/22 10:56:32;;;;;;;38.20;26.35;;;;;;;1.72;100.00;102442.78;5044786;28;20021;-75
2021/12/22 10:59:10;;;;;;;36.13;24.30;;;;;;;1.65;100.00;102432.69;5042686;28;20363;-76
2021/12/22 11:01:38;;;;;;;36.45;24.73;;;;;;;1.51;100.00;102428.13;5044746;28;20025;-76
2021/12/22 11:04:14;;;;;;;33.20;23.90;;;;;;;1.47;100.00;102427.63;5044984;28;20065;-76
2021/12/22 11:06:40;;;;;;;36.60;25.70;;;;;;;1.76;100.00;102415.22;5042229;28;20035;-75
2021/12/22 11:09:14;;;;;;;36.03;24.42;;;;;;;1.63;100.00;102417.72;5045766;28;20028;-76
2021/12/22 11:11:46;;;;;;;38.92;26.02;;;;;;;1.81;100.00;102423.59;5044901;28;20549;-76
2021/12/22 11:14:24;;;;;;;33.38;24.98;;;;;;;1.93;100.00;102417.72;5045174;28;20052;-77
2021/12/22 11:16:56;;;;;;;35.92;24.70;;;;;;;2.16;100.00;102415.75;5043779;28;20037;-76
2021/12/22 11:19:23;;;;;;;;;;;;;;;2.09;100.00;102416.72;5044027;28;20336;-76
2021/12/22 11:22:06;;;;;;;40.72;24.25;;;;;;;2.08;100.00;102401.50;5040666;28;19920;-77
2021/12/22 11:24:35;;;;;;;31.55;22.60;;;;;;;2.16;100.00;102394.13;5059623;28;20037;-76
2021/12/22 11:27:01;;;;;;;32.45;22.23;;;;;;;2.03;100.00;102396.66;5062810;28;20044;-76